createdAt,value
2023-11-20T00:02:00.308Z,5.90
2023-11-20T00:04:26.386Z,5.90
2023-11-20T00:06:52.418Z,5.75
2023-11-20T00:09:19.235Z,5.92
2023-11-20T00:11:45.201Z,5.93
2023-11-20T00:14:11.192Z,5.96
2023-11-20T00:16:37.074Z,5.99
2023-11-20T00:19:05.253Z,5.86
2023-11-20T00:21:32.297Z,5.80
2023-11-20T00:23:58.702Z,5.81
2023-11-20T00:26:24.611Z,5.80
2023-11-20T00:28:54.039Z,5.69
2023-11-20T00:31:19.865Z,5.85
2023-11-20T00:33:45.717Z,5.93
2023-11-20T00:36:12.450Z,5.99
2023-11-20T00:38:38.249Z,5.95
2023-11-20T00:41:05.003Z,5.92
2023-11-20T00:43:32.343Z,5.72
2023-11-20T00:45:58.261Z,5.82
2023-11-20T00:48:24.089Z,5.67
2023-11-20T00:50:49.949Z,5.73
2023-11-20T00:53:15.803Z,5.81
2023-11-20T00:55:41.609Z,5.88
2023-11-20T00:58:07.506Z,5.96
2023-11-20T01:00:33.366Z,5.90
2023-11-20T01:02:59.873Z,5.95
2023-11-20T01:05:25.777Z,6.02
2023-11-20T01:07:51.689Z,6.15
2023-11-20T01:10:17.521Z,5.94
2023-11-20T01:12:43.430Z,6.11
2023-11-20T01:15:09.826Z,6.06
2023-11-20T01:17:35.734Z,6.01
2023-11-20T01:20:01.700Z,5.85
2023-11-20T01:22:27.592Z,5.84
2023-11-20T01:24:53.454Z,5.82
2023-11-20T01:27:19.290Z,5.89
2023-11-20T01:29:45.091Z,5.83
2023-11-20T01:32:10.898Z,5.63
2023-11-20T01:34:36.730Z,5.64
2023-11-20T01:37:02.730Z,5.80
2023-11-20T01:39:28.699Z,5.77
2023-11-20T01:41:54.538Z,5.81
2023-11-20T01:44:21.145Z,5.80
2023-11-20T01:46:47.090Z,5.70
2023-11-20T01:49:13.021Z,5.70
2023-11-20T01:51:39.090Z,5.54
2023-11-20T01:54:05.642Z,5.43
2023-11-20T01:56:33.029Z,5.41
2023-11-20T01:59:06.950Z,5.35
2023-11-20T02:01:35.915Z,5.53
2023-11-20T02:04:04.368Z,5.51
2023-11-20T02:06:30.991Z,5.32
2023-11-20T02:08:56.988Z,5.43
2023-11-20T02:11:24.271Z,5.29
2023-11-20T02:13:53.657Z,5.39
2023-11-20T02:16:19.639Z,5.18
2023-11-20T02:18:45.465Z,5.16
2023-11-20T02:21:11.317Z,5.15
2023-11-20T02:23:37.184Z,5.15
2023-11-20T02:26:34.092Z,5.24
2023-11-20T02:29:24.648Z,5.20
2023-11-20T02:31:50.520Z,5.06
2023-11-20T02:34:16.982Z,5.09
2023-11-20T02:36:42.966Z,4.99
2023-11-20T02:39:09.869Z,4.77
2023-11-20T02:41:38.918Z,4.83
2023-11-20T02:44:05.155Z,4.88
2023-11-20T02:46:31.050Z,4.90
2023-11-20T02:48:57.132Z,4.85
2023-11-20T02:51:22.963Z,4.68
2023-11-20T02:53:48.805Z,4.88
2023-11-20T02:56:14.631Z,4.66
2023-11-20T02:58:40.439Z,4.71
2023-11-20T03:01:09.792Z,4.58
2023-11-20T03:03:39.818Z,4.67
2023-11-20T03:06:06.917Z,4.55
2023-11-20T03:08:32.770Z,4.64
2023-11-20T03:10:58.596Z,4.34
2023-11-20T03:13:24.518Z,4.43
2023-11-20T03:15:51.226Z,4.35
2023-11-20T03:18:17.859Z,4.31
2023-11-20T03:20:43.706Z,4.40
2023-11-20T03:23:11.445Z,4.24
2023-11-20T03:25:37.345Z,4.28
2023-11-20T03:28:04.245Z,4.23
2023-11-20T03:30:32.757Z,4.20
2023-11-20T03:32:59.162Z,4.22
2023-11-20T03:35:25.257Z,4.39
2023-11-20T03:37:51.186Z,4.31
2023-11-20T03:40:17.223Z,4.39
2023-11-20T03:42:43.234Z,4.26
2023-11-20T03:45:09.693Z,4.36
2023-11-20T03:47:35.631Z,4.58
2023-11-20T03:50:03.490Z,4.49
2023-11-20T03:52:29.455Z,4.45
2023-11-20T03:54:55.312Z,4.44
2023-11-20T03:57:21.302Z,4.53
2023-11-20T03:59:47.117Z,4.40
2023-11-20T04:02:12.902Z,4.50
2023-11-20T04:04:39.025Z,4.43
2023-11-20T04:07:05.049Z,4.55
2023-11-20T04:09:30.919Z,4.47
2023-11-20T04:11:56.713Z,4.53
2023-11-20T04:14:22.533Z,4.42
2023-11-20T04:16:48.826Z,4.47
2023-11-20T04:19:15.027Z,4.55
2023-11-20T04:21:41.966Z,4.50
2023-11-20T04:24:08.518Z,4.49
2023-11-20T04:26:34.391Z,4.34
2023-11-20T04:29:00.304Z,4.49
2023-11-20T04:31:26.174Z,4.46
2023-11-20T04:33:52.111Z,4.33
2023-11-20T04:36:18.065Z,4.23
2023-11-20T04:38:43.965Z,4.32
2023-11-20T04:41:11.265Z,4.25
2023-11-20T04:43:37.181Z,4.38
2023-11-20T04:46:03.031Z,4.31
2023-11-20T04:48:28.894Z,4.35
2023-11-20T04:50:54.749Z,4.44
2023-11-20T04:53:22.209Z,4.39
2023-11-20T04:55:48.043Z,4.49
2023-11-20T04:58:13.932Z,4.42
2023-11-20T05:00:40.081Z,4.54
2023-11-20T05:03:05.971Z,4.48
2023-11-20T05:05:31.866Z,4.44
2023-11-20T05:07:57.746Z,4.43
2023-11-20T05:10:23.557Z,4.37
2023-11-20T05:12:49.796Z,4.33
2023-11-20T05:15:15.732Z,4.26
2023-11-20T05:17:41.591Z,4.37
2023-11-20T05:20:08.564Z,4.33
2023-11-20T05:22:34.404Z,4.35
2023-11-20T05:25:00.727Z,4.30
2023-11-20T05:27:26.592Z,4.22
2023-11-20T05:29:53.322Z,4.28
2023-11-20T05:32:19.122Z,4.24
2023-11-20T05:34:44.937Z,4.29
2023-11-20T05:37:10.855Z,4.15
2023-11-20T05:39:37.003Z,4.07
2023-11-20T05:42:03.102Z,4.14
2023-11-20T05:44:29.231Z,4.08
2023-11-20T05:46:55.301Z,4.11
2023-11-20T05:49:21.177Z,4.12
2023-11-20T05:51:47.120Z,3.98
2023-11-20T05:54:13.069Z,4.14
2023-11-20T05:56:38.871Z,4.11
2023-11-20T05:59:05.254Z,4.13
2023-11-20T06:01:41.230Z,4.11
2023-11-20T06:04:09.133Z,4.01
2023-11-20T06:06:36.696Z,4.09
2023-11-20T06:09:04.818Z,4.06
2023-11-20T06:11:35.258Z,3.98
2023-11-20T06:14:01.755Z,4.01
2023-11-20T06:16:27.734Z,4.01
2023-11-20T06:18:53.765Z,4.01
2023-11-20T06:21:19.674Z,3.97
2023-11-20T06:23:45.726Z,3.93
2023-11-20T06:26:11.910Z,4.01
2023-11-20T06:28:37.792Z,3.98
2023-11-20T06:31:03.999Z,3.91
2023-11-20T06:33:29.869Z,3.99
2023-11-20T06:35:55.672Z,3.94
2023-11-20T06:38:21.948Z,4.06
2023-11-20T06:40:47.891Z,3.93
2023-11-20T06:43:13.878Z,3.97
2023-11-20T06:45:40.169Z,4.02
2023-11-20T06:48:07.688Z,4.20
2023-11-20T06:50:33.477Z,4.17
2023-11-20T06:53:00.176Z,4.20
2023-11-20T06:55:26.475Z,4.18
2023-11-20T06:57:52.594Z,4.32
2023-11-20T07:00:19.166Z,4.41
2023-11-20T07:02:45.216Z,4.51
2023-11-20T07:05:15.370Z,4.58
2023-11-20T07:07:51.069Z,4.59
2023-11-20T07:10:23.734Z,4.67
2023-11-20T07:12:54.646Z,4.79
2023-11-20T07:15:21.586Z,4.84
2023-11-20T07:17:48.279Z,4.88
2023-11-20T07:20:14.892Z,4.88
2023-11-20T07:22:40.769Z,5.07
2023-11-20T07:25:08.049Z,5.16
2023-11-20T07:27:37.382Z,5.39
2023-11-20T07:30:07.486Z,5.54
2023-11-20T07:32:35.710Z,5.57
2023-11-20T07:35:03.864Z,5.75
2023-11-20T07:37:30.632Z,5.69
2023-11-20T07:39:56.622Z,5.88
2023-11-20T07:42:22.684Z,5.99
2023-11-20T07:44:49.003Z,5.98
2023-11-20T07:47:14.939Z,5.86
2023-11-20T07:49:40.851Z,6.03
2023-11-20T07:52:06.712Z,6.21
2023-11-20T07:54:32.605Z,6.27
2023-11-20T07:56:58.426Z,6.36
2023-11-20T07:59:24.269Z,6.38
2023-11-20T08:01:52.007Z,6.49
2023-11-20T08:04:17.934Z,6.68
2023-11-20T08:06:46.386Z,6.75
2023-11-20T08:09:12.501Z,6.62
2023-11-20T08:11:38.417Z,6.89
2023-11-20T08:14:04.351Z,6.99
2023-11-20T08:16:30.304Z,7.07
2023-11-20T08:18:58.548Z,7.14
2023-11-20T08:21:24.949Z,7.13
2023-11-20T08:23:51.454Z,7.26
2023-11-20T08:26:17.605Z,7.39
2023-11-20T08:28:46.574Z,7.50
2023-11-20T08:31:12.501Z,7.63
2023-11-20T08:33:38.346Z,7.63
2023-11-20T08:36:04.726Z,7.67
2023-11-20T08:38:30.598Z,7.78
2023-11-20T08:40:57.613Z,7.89
2023-11-20T08:43:24.045Z,8.00
2023-11-20T08:45:53.302Z,7.93
2023-11-20T08:48:23.223Z,8.16
2023-11-20T08:50:49.212Z,8.26
2023-11-20T08:53:15.084Z,8.30
2023-11-20T08:55:40.903Z,8.35
2023-11-20T08:58:08.774Z,8.51
2023-11-20T09:00:35.465Z,8.51
2023-11-20T09:03:01.353Z,8.73
2023-11-20T09:05:27.810Z,8.61
2023-11-20T09:07:54.915Z,8.78
2023-11-20T09:10:23.568Z,8.76
2023-11-20T09:12:52.265Z,8.97
2023-11-20T09:15:19.357Z,8.88
2023-11-20T09:17:45.474Z,9.01
2023-11-20T09:20:13.136Z,9.25
2023-11-20T09:22:40.092Z,9.20
2023-11-20T09:25:06.669Z,9.36
2023-11-20T09:27:33.308Z,9.36
2023-11-20T09:29:59.554Z,9.44
2023-11-20T09:32:27.464Z,9.60
2023-11-20T09:34:53.288Z,9.67
2023-11-20T09:37:19.088Z,9.79
2023-11-20T09:39:46.724Z,9.95
2023-11-20T09:42:15.025Z,10.06
2023-11-20T09:44:44.229Z,10.15
2023-11-20T09:47:11.780Z,10.28
2023-11-20T09:49:40.937Z,10.37
2023-11-20T09:52:08.376Z,10.49
2023-11-20T09:54:41.598Z,10.45
2023-11-20T09:57:09.976Z,10.68
2023-11-20T09:59:36.703Z,10.76
2023-11-20T10:02:03.329Z,10.83
2023-11-20T10:04:32.381Z,10.92
2023-11-20T10:07:02.518Z,10.90
2023-11-20T10:09:31.435Z,11.10
2023-11-20T10:11:57.795Z,11.18
2023-11-20T10:14:23.814Z,11.22
2023-11-20T10:16:51.928Z,11.15
2023-11-20T10:19:18.670Z,11.28
2023-11-20T10:21:47.207Z,11.34
2023-11-20T10:24:17.055Z,11.36
2023-11-20T10:26:43.194Z,11.39
2023-11-20T10:29:10.331Z,11.35
2023-11-20T10:31:47.117Z,11.27
2023-11-20T10:34:14.382Z,11.45
2023-11-20T10:36:40.815Z,11.39
2023-11-20T10:39:12.382Z,11.44
2023-11-20T10:41:42.508Z,11.55
2023-11-20T10:44:08.772Z,11.55
2023-11-20T10:46:35.292Z,11.49
2023-11-20T10:49:07.311Z,11.70
2023-11-20T10:51:34.804Z,11.75
2023-11-20T10:57:28.710Z,11.95
2023-11-20T11:00:29.646Z,11.98
2023-11-20T11:03:16.815Z,11.99
2023-11-20T11:06:31.914Z,12.01
2023-11-20T11:09:03.125Z,11.99
2023-11-20T11:14:29.670Z,12.11
2023-11-20T11:17:01.922Z,12.14
2023-11-20T11:19:37.903Z,12.25
2023-11-20T11:22:11.246Z,12.16
2023-11-20T11:24:40.540Z,12.26
2023-11-20T11:27:36.846Z,12.29
2023-11-20T11:30:07.865Z,12.31
2023-11-20T11:32:58.912Z,12.35
2023-11-20T11:35:46.542Z,12.38
2023-11-20T11:38:41.632Z,12.32
2023-11-20T11:41:35.531Z,12.46
2023-11-20T11:44:14.974Z,12.46
2023-11-20T11:46:43.815Z,12.49
2023-11-20T11:49:23.163Z,12.51
2023-11-20T11:51:53.792Z,12.41
2023-11-20T11:54:20.348Z,12.44
2023-11-20T11:56:46.105Z,12.70
2023-11-20T11:59:19.995Z,12.73
2023-11-20T12:01:47.647Z,12.74
2023-11-20T12:04:52.079Z,12.88
2023-11-20T12:07:40.579Z,12.93
2023-11-20T12:10:11.851Z,12.97
2023-11-20T12:13:06.943Z,12.99
2023-11-20T12:15:40.231Z,13.10
2023-11-20T12:18:12.074Z,13.08
2023-11-20T12:21:00.257Z,13.23
2023-11-20T12:23:43.085Z,13.24
2023-11-20T12:26:11.616Z,13.17
2023-11-20T12:28:38.561Z,13.22
2023-11-20T12:31:06.878Z,13.25
2023-11-20T12:33:33.867Z,13.36
2023-11-20T12:36:00.743Z,13.32
2023-11-20T12:38:34.138Z,13.40
2023-11-20T12:41:03.823Z,13.40
2023-11-20T12:43:31.428Z,13.32
2023-11-20T12:45:58.119Z,13.47
2023-11-20T12:48:24.129Z,13.43
2023-11-20T12:50:50.868Z,13.39
2023-11-20T12:53:17.911Z,13.41
2023-11-20T12:55:47.500Z,13.37
2023-11-20T12:58:13.539Z,13.48
2023-11-20T13:00:43.424Z,13.45
2023-11-20T13:03:19.609Z,13.42
2023-11-20T13:05:53.984Z,13.41
2023-11-20T13:08:24.321Z,13.22
2023-11-20T13:10:55.354Z,13.34
2023-11-20T13:13:23.117Z,13.36
2023-11-20T13:15:55.655Z,13.27
2023-11-20T13:18:27.690Z,13.17
2023-11-20T13:20:54.433Z,13.18
2023-11-20T13:23:25.786Z,13.14
2023-11-20T13:26:05.788Z,13.12
2023-11-20T13:28:38.442Z,13.04
2023-11-20T13:31:09.402Z,13.05
2023-11-20T13:33:42.385Z,12.86
2023-11-20T13:36:09.755Z,13.01
2023-11-20T13:38:36.460Z,13.04
2023-11-20T13:41:02.939Z,13.07
2023-11-20T13:43:29.546Z,13.07
2023-11-20T13:45:56.639Z,13.11
2023-11-20T13:48:23.633Z,13.15
2023-11-20T13:50:49.626Z,13.09
2023-11-20T13:53:16.390Z,13.04
2023-11-20T13:55:45.123Z,13.10
2023-11-20T13:58:13.156Z,13.16
2023-11-20T14:00:38.996Z,13.10
2023-11-20T14:03:04.964Z,13.13
2023-11-20T14:05:30.912Z,13.25
2023-11-20T14:07:57.196Z,13.27
2023-11-20T14:10:23.353Z,13.29
2023-11-20T14:12:51.946Z,13.26
2023-11-20T14:15:17.852Z,13.37
2023-11-20T14:17:43.898Z,13.28
2023-11-20T14:20:13.294Z,13.32
2023-11-20T14:22:42.076Z,13.41
2023-11-20T14:25:10.733Z,13.45
2023-11-20T14:27:38.298Z,13.30
2023-11-20T14:30:09.361Z,13.46
2023-11-20T14:32:35.226Z,13.38
2023-11-20T14:35:01.113Z,13.46
2023-11-20T14:37:26.975Z,13.42
2023-11-20T14:39:53.738Z,13.46
2023-11-20T14:42:19.591Z,13.40
2023-11-20T14:44:45.452Z,13.40
2023-11-20T14:47:11.298Z,13.34
2023-11-20T14:49:39.784Z,13.37
2023-11-20T14:52:06.406Z,13.34
2023-11-20T14:54:32.271Z,13.10
2023-11-20T14:56:58.151Z,13.25
2023-11-20T14:59:23.991Z,13.20
2023-11-20T15:01:51.356Z,13.17
2023-11-20T15:04:17.854Z,13.11
2023-11-20T15:06:44.130Z,13.20
2023-11-20T15:09:09.955Z,13.06
2023-11-20T15:11:35.803Z,13.15
2023-11-20T15:14:01.646Z,13.02
2023-11-20T15:16:27.639Z,13.08
2023-11-20T15:18:54.311Z,12.87
2023-11-20T15:21:20.136Z,12.99
2023-11-20T15:23:45.954Z,13.00
2023-11-20T15:26:12.242Z,12.96
2023-11-20T15:28:38.457Z,12.87
2023-11-20T15:31:05.521Z,12.70
2023-11-20T15:33:31.311Z,12.69
2023-11-20T15:35:57.161Z,12.63
2023-11-20T15:38:22.960Z,12.46
2023-11-20T15:40:48.892Z,12.42
2023-11-20T15:43:14.867Z,12.22
2023-11-20T15:45:40.774Z,12.16
2023-11-20T15:48:06.753Z,12.23
2023-11-20T15:50:33.686Z,12.07
2023-11-20T15:52:59.527Z,12.02
2023-11-20T15:55:25.355Z,11.87
2023-11-20T15:57:53.384Z,11.78
2023-11-20T16:00:19.556Z,11.72
2023-11-20T16:02:45.501Z,11.66
2023-11-20T16:05:11.426Z,11.58
2023-11-20T16:07:39.679Z,11.59
2023-11-20T16:10:12.226Z,11.46
2023-11-20T16:12:40.352Z,11.45
2023-11-20T16:15:08.997Z,11.37
2023-11-20T16:17:36.028Z,11.33
2023-11-20T16:20:02.416Z,11.09
2023-11-20T16:22:28.380Z,11.06
2023-11-20T16:24:54.209Z,11.04
2023-11-20T16:27:20.241Z,10.96
2023-11-20T16:29:46.589Z,10.89
2023-11-20T16:32:12.709Z,10.89
2023-11-20T16:34:38.607Z,10.74
2023-11-20T16:37:05.824Z,10.79
2023-11-20T16:39:32.054Z,10.71
2023-11-20T16:41:57.910Z,10.67
2023-11-20T16:44:25.155Z,10.56
2023-11-20T16:46:53.046Z,10.41
2023-11-20T16:49:19.207Z,10.43
2023-11-20T16:51:45.229Z,10.17
2023-11-20T16:54:11.052Z,10.35
2023-11-20T16:56:36.945Z,10.26
2023-11-20T16:59:03.249Z,10.03
2023-11-20T17:01:29.196Z,9.98
2023-11-20T17:03:55.209Z,9.95
2023-11-20T17:06:21.910Z,9.71
2023-11-20T17:08:49.297Z,9.67
2023-11-20T17:11:15.953Z,9.71
2023-11-20T17:13:42.308Z,9.62
2023-11-20T17:16:09.944Z,9.47
2023-11-20T17:18:37.902Z,9.59
2023-11-20T17:21:04.423Z,9.56
2023-11-20T17:23:30.294Z,9.53
2023-11-20T17:25:56.149Z,9.50
2023-11-20T17:28:22.108Z,9.42
2023-11-20T17:30:47.980Z,9.30
2023-11-20T17:33:13.912Z,9.30
2023-11-20T17:35:39.869Z,9.14
2023-11-20T17:38:05.927Z,9.03
2023-11-20T17:40:32.003Z,9.19
2023-11-20T17:42:57.847Z,9.12
2023-11-20T17:45:24.010Z,8.95
2023-11-20T17:47:49.819Z,8.92
2023-11-20T17:50:16.916Z,8.80
2023-11-20T17:52:42.834Z,8.85
2023-11-20T17:55:09.350Z,8.85
2023-11-20T17:57:39.671Z,8.65
2023-11-20T18:00:10.489Z,8.50
2023-11-20T18:02:36.416Z,8.50
2023-11-20T18:05:04.220Z,8.56
2023-11-20T18:07:30.342Z,8.53
2023-11-20T18:09:56.400Z,8.36
2023-11-20T18:12:22.400Z,8.37
2023-11-20T18:14:48.271Z,8.40
2023-11-20T18:17:14.125Z,8.39
2023-11-20T18:19:39.929Z,8.30
2023-11-20T18:22:05.758Z,8.16
2023-11-20T18:24:31.755Z,8.12
2023-11-20T18:26:57.612Z,7.99
2023-11-20T18:29:23.755Z,8.11
2023-11-20T18:31:49.798Z,7.98
2023-11-20T18:34:15.744Z,8.01
2023-11-20T18:36:42.442Z,7.93
2023-11-20T18:39:08.992Z,7.79
2023-11-20T18:41:34.997Z,7.72
2023-11-20T18:44:01.517Z,7.73
2023-11-20T18:46:28.117Z,7.77
2023-11-20T18:48:53.970Z,7.61
2023-11-20T18:51:19.799Z,7.61
2023-11-20T18:53:48.460Z,7.55
2023-11-20T18:56:14.396Z,7.52
2023-11-20T18:58:41.400Z,7.50
2023-11-20T19:01:07.310Z,7.39
2023-11-20T19:03:33.231Z,7.43
2023-11-20T19:05:59.102Z,7.41
2023-11-20T19:08:25.761Z,7.39
2023-11-20T19:10:51.991Z,7.21
2023-11-20T19:13:17.911Z,7.14
2023-11-20T19:15:43.882Z,7.11
2023-11-20T19:18:10.697Z,7.14
2023-11-20T19:20:36.576Z,6.97
2023-11-20T19:23:02.414Z,6.96
2023-11-20T19:25:28.235Z,6.90
2023-11-20T19:27:54.697Z,6.89
2023-11-20T19:30:22.587Z,6.88
2023-11-20T19:32:49.425Z,6.74
2023-11-20T19:35:16.709Z,6.87
2023-11-20T19:37:46.422Z,6.75
2023-11-20T19:40:14.017Z,6.70
2023-11-20T19:42:42.097Z,6.81
2023-11-20T19:45:09.848Z,6.78
2023-11-20T19:47:36.675Z,6.68
2023-11-20T19:50:04.467Z,6.56
2023-11-20T19:52:30.396Z,6.64
2023-11-20T19:54:57.052Z,6.69
2023-11-20T19:57:22.999Z,6.65
2023-11-20T19:59:48.797Z,6.54
2023-11-20T20:02:14.905Z,6.56
2023-11-20T20:04:41.218Z,6.63
2023-11-20T20:07:07.133Z,6.55
2023-11-20T20:09:36.561Z,6.50
2023-11-20T20:12:03.118Z,6.48
2023-11-20T20:14:29.000Z,6.46
2023-11-20T20:16:59.999Z,6.21
2023-11-20T20:19:26.989Z,6.36
2023-11-20T20:21:56.118Z,6.22
2023-11-20T20:24:21.831Z,6.33
2023-11-20T20:26:47.631Z,6.33
2023-11-20T20:29:13.583Z,6.30
2023-11-20T20:31:39.591Z,6.20
2023-11-20T20:34:06.058Z,6.10
2023-11-20T20:36:32.033Z,6.00
2023-11-20T20:39:00.217Z,6.16
2023-11-20T20:41:26.020Z,6.15
2023-11-20T20:43:52.224Z,6.15
2023-11-20T20:46:18.204Z,6.01
2023-11-20T20:48:44.215Z,5.99
2023-11-20T20:51:10.081Z,5.92
2023-11-20T20:53:36.621Z,6.05
2023-11-20T20:56:05.536Z,5.89
2023-11-20T20:58:32.655Z,6.03
2023-11-20T21:00:58.735Z,5.75
2023-11-20T21:03:24.646Z,5.63
2023-11-20T21:05:51.390Z,5.79
2023-11-20T21:08:17.241Z,5.71
2023-11-20T21:10:43.145Z,5.70
2023-11-20T21:13:09.524Z,5.73
2023-11-20T21:15:35.446Z,5.60
2023-11-20T21:18:02.039Z,5.66
2023-11-20T21:20:27.835Z,5.77
2023-11-20T21:22:53.645Z,5.80
2023-11-20T21:25:21.384Z,5.75
2023-11-20T21:27:48.168Z,5.54
2023-11-20T21:30:14.140Z,5.64
2023-11-20T21:32:40.032Z,5.56
2023-11-20T21:35:06.501Z,5.60
2023-11-20T21:37:32.706Z,5.63
2023-11-20T21:39:58.655Z,5.68
2023-11-20T21:42:24.454Z,5.49
2023-11-20T21:44:52.208Z,5.68
2023-11-20T21:47:18.145Z,5.56
2023-11-20T21:49:44.005Z,5.54
2023-11-20T21:52:09.855Z,5.60
2023-11-20T21:54:35.689Z,5.50
2023-11-20T21:57:01.498Z,5.62
2023-11-20T21:59:28.112Z,5.45
2023-11-20T22:01:54.230Z,5.50
2023-11-20T22:04:20.120Z,5.59
2023-11-20T22:06:46.294Z,5.58
2023-11-20T22:09:13.949Z,5.39
2023-11-20T22:11:40.761Z,5.45
2023-11-20T22:14:06.572Z,5.46
2023-11-20T22:16:32.679Z,5.49
2023-11-20T22:18:58.544Z,5.42
2023-11-20T22:21:24.365Z,5.33
2023-11-20T22:23:50.205Z,5.45
2023-11-20T22:26:15.997Z,5.41
2023-11-20T22:28:41.876Z,5.34
2023-11-20T22:31:08.279Z,5.33
2023-11-20T22:33:34.164Z,5.35
2023-11-20T22:36:10.236Z,5.42
2023-11-20T22:38:36.081Z,5.31
2023-11-20T22:41:02.227Z,5.44
2023-11-20T22:43:29.501Z,5.40
2023-11-20T22:45:55.375Z,5.43
2023-11-20T22:48:21.244Z,5.32
2023-11-20T22:50:47.059Z,5.38
2023-11-20T22:53:12.894Z,5.13
2023-11-20T22:55:38.730Z,5.26
2023-11-20T22:58:04.796Z,5.18
2023-11-20T23:00:37.401Z,5.16
2023-11-20T23:03:04.111Z,5.31
2023-11-20T23:05:29.987Z,5.41
2023-11-20T23:07:55.786Z,5.37
2023-11-20T23:10:22.592Z,5.20
2023-11-20T23:12:48.389Z,5.33
2023-11-20T23:15:15.182Z,5.23
2023-11-20T23:17:42.489Z,5.05
2023-11-20T23:20:16.399Z,5.03
2023-11-20T23:22:45.455Z,5.26
2023-11-20T23:25:16.633Z,5.12
2023-11-20T23:27:45.785Z,5.13
2023-11-20T23:30:12.343Z,5.09
2023-11-20T23:32:38.200Z,5.16
2023-11-20T23:35:05.253Z,5.24
2023-11-20T23:37:31.170Z,5.14
2023-11-20T23:39:56.988Z,5.23
2023-11-20T23:42:23.434Z,5.23
2023-11-20T23:44:49.276Z,5.12
2023-11-20T23:47:17.878Z,5.05
2023-11-20T23:49:43.738Z,4.97
2023-11-20T23:52:09.637Z,4.77
2023-11-20T23:54:36.199Z,5.10
2023-11-20T23:57:02.918Z,5.01
2023-11-20T23:59:29.191Z,5.01
